Time;durP1;ratioP1;P1;durP2;ratioP2;P2;SDS_P1;SDS_P2;PMS_P1;PMS_P2;Temp;Humidity;BMP_temperature;BMP_pressure;BME280_temperature;BME280_humidity;BME280_pressure;Samples;Min_cycle;Max_cycle;Signal;HPM_P1;HPM_P2
2022/07/07 00:02:14;;;;;;;15.35;9.48;;;16.60;99.90;;;;;;4955805;28;127411;-77
2022/07/07 00:04:40;;;;;;;16.45;8.82;;;16.60;99.90;;;;;;4961622;28;252336;-77
2022/07/07 00:07:06;;;;;;;17.38;8.75;;;16.60;99.90;;;;;;4944135;28;206385;-78
2022/07/07 00:09:33;;;;;;;14.65;8.88;;;16.50;99.90;;;;;;4997156;28;113968;-76
2022/07/07 00:11:59;;;;;;;19.67;8.93;;;16.50;99.90;;;;;;4940662;28;208908;-77
2022/07/07 00:14:25;;;;;;;14.57;7.78;;;16.50;99.90;;;;;;4986230;28;264228;-78
2022/07/07 00:16:52;;;;;;;14.98;7.65;;;16.50;99.90;;;;;;4950436;28;220830;-79
2022/07/07 00:19:18;;;;;;;14.60;8.05;;;16.50;99.90;;;;;;4961845;28;271678;-77
2022/07/07 00:21:44;;;;;;;14.63;7.75;;;16.50;99.90;;;;;;4951611;28;210394;-77
2022/07/07 00:24:10;;;;;;;18.25;8.73;;;16.50;99.90;;;;;;4977067;28;271810;-77
2022/07/07 00:26:36;;;;;;;14.98;8.32;;;16.50;99.90;;;;;;4972412;28;178346;-78
2022/07/07 00:29:02;;;;;;;14.40;8.60;;;16.50;99.90;;;;;;4999869;28;20050;-78
2022/07/07 00:31:29;;;;;;;17.80;8.50;;;16.50;99.90;;;;;;4933308;28;208476;-78
2022/07/07 00:33:55;;;;;;;19.63;8.75;;;16.50;99.90;;;;;;4997090;28;20054;-78
2022/07/07 00:36:21;;;;;;;20.27;8.80;;;16.40;99.90;;;;;;4947254;28;211770;-78
2022/07/07 00:38:48;;;;;;;15.88;8.27;;;16.40;99.90;;;;;;4996272;28;20052;-78
2022/07/07 00:41:15;;;;;;;17.90;8.00;;;16.40;99.90;;;;;;4948081;28;206724;-77
2022/07/07 00:43:43;;;;;;;17.13;7.90;;;16.40;99.90;;;;;;4984460;28;20053;-78
2022/07/07 00:46:11;;;;;;;18.45;7.60;;;16.40;99.90;;;;;;4945100;28;237265;-78
2022/07/07 00:48:39;;;;;;;16.67;7.38;;;16.40;99.90;;;;;;4996693;28;20041;-79
2022/07/07 00:51:08;;;;;;;18.50;7.25;;;16.40;99.90;;;;;;4954595;28;199805;-78
2022/07/07 00:53:35;;;;;;;14.52;6.38;;;16.40;99.90;;;;;;5007238;28;20051;-78
2022/07/07 00:56:02;;;;;;;13.18;6.53;;;16.40;99.90;;;;;;4928225;28;204883;-79
2022/07/07 00:58:28;;;;;;;14.88;6.47;;;16.40;99.90;;;;;;4968817;28;20053;-79
2022/07/07 01:00:54;;;;;;;15.27;6.80;;;16.40;99.90;;;;;;4937248;28;202984;-78
2022/07/07 01:03:20;;;;;;;14.73;6.55;;;16.40;99.90;;;;;;4984368;28;20053;-78
2022/07/07 01:05:48;;;;;;;15.63;7.15;;;16.40;99.90;;;;;;4931501;28;232899;-78
2022/07/07 01:08:15;;;;;;;16.65;7.80;;;16.40;99.90;;;;;;4993975;28;20061;-82
2022/07/07 01:10:45;;;;;;;17.02;6.88;;;16.40;99.90;;;;;;4948207;28;214496;-83
2022/07/07 01:13:12;;;;;;;12.07;5.20;;;16.30;99.90;;;;;;4988155;28;20046;-84
2022/07/07 01:15:38;;;;;;;13.52;5.93;;;16.30;99.90;;;;;;4951303;28;179734;-83
2022/07/07 01:18:06;;;;;;;10.82;4.35;;;16.20;99.90;;;;;;4997366;28;20046;-81
2022/07/07 01:20:33;;;;;;;13.67;4.17;;;16.20;99.90;;;;;;4953400;28;207928;-80
2022/07/07 01:22:59;;;;;;;14.43;4.35;;;16.10;99.90;;;;;;4986050;28;20045;-82
2022/07/07 01:25:25;;;;;;;12.33;4.03;;;16.10;99.90;;;;;;4958576;28;260276;-80
2022/07/07 01:27:52;;;;;;;11.45;3.60;;;16.10;99.90;;;;;;4993613;28;20061;-81
2022/07/07 01:30:19;;;;;;;14.18;3.85;;;16.00;99.90;;;;;;4975297;28;133964;-81
2022/07/07 01:32:46;;;;;;;13.13;4.38;;;16.00;99.90;;;;;;4959411;28;205355;-80
2022/07/07 01:35:12;;;;;;;13.73;4.10;;;16.00;99.90;;;;;;4981650;28;68276;-81
2022/07/07 01:37:38;;;;;;;14.73;4.10;;;15.90;99.90;;;;;;4952278;28;207753;-82
2022/07/07 01:40:07;;;;;;;16.33;4.55;;;16.00;99.90;;;;;;4989749;28;120740;-82
2022/07/07 01:42:35;;;;;;;15.68;4.30;;;16.00;99.90;;;;;;4959338;28;118919;-82
2022/07/07 01:45:01;;;;;;;15.73;4.75;;;15.90;99.90;;;;;;4994539;28;126010;-82
2022/07/07 01:47:30;;;;;;;13.82;4.40;;;15.90;99.90;;;;;;4941714;28;206247;-83
2022/07/07 01:49:56;;;;;;;15.05;4.32;;;15.90;99.90;;;;;;4995930;28;181183;-84
2022/07/07 01:52:22;;;;;;;12.48;4.68;;;15.90;99.90;;;;;;4963176;28;196190;-82
2022/07/07 01:54:48;;;;;;;13.02;4.80;;;15.90;99.90;;;;;;4994995;28;136308;-83
2022/07/07 01:57:15;;;;;;;10.43;4.63;;;15.90;99.90;;;;;;4932900;28;202037;-82
2022/07/07 01:59:41;;;;;;;11.88;4.35;;;15.90;99.90;;;;;;4987774;28;229069;-83
2022/07/07 02:02:07;;;;;;;12.32;4.50;;;15.80;99.90;;;;;;4929577;28;204720;-84
2022/07/07 02:04:34;;;;;;;14.25;4.85;;;15.80;99.90;;;;;;4967710;28;131672;-83
2022/07/07 02:07:00;;;;;;;15.93;4.88;;;15.90;99.90;;;;;;4951770;28;216482;-82
2022/07/07 02:09:26;;;;;;;13.00;4.70;;;15.90;99.90;;;;;;4994751;28;258384;-81
2022/07/07 02:11:53;;;;;;;13.57;4.78;;;15.80;99.90;;;;;;4937162;28;190866;-81
2022/07/07 02:14:19;;;;;;;12.27;4.55;;;15.90;99.90;;;;;;4979409;28;271519;-80
2022/07/07 02:16:45;;;;;;;11.82;4.15;;;15.90;99.90;;;;;;4925400;28;206062;-82
2022/07/07 02:19:11;;;;;;;13.70;4.68;;;15.90;99.90;;;;;;4977521;28;258071;-81
2022/07/07 02:21:37;;;;;;;12.45;4.20;;;15.80;99.90;;;;;;4933651;28;206375;-80
2022/07/07 02:24:04;;;;;;;14.68;4.78;;;15.80;99.90;;;;;;5019309;28;20056;-83
2022/07/07 02:26:33;;;;;;;13.98;4.65;;;15.90;99.90;;;;;;4955189;28;206224;-81
2022/07/07 02:29:01;;;;;;;17.58;4.78;;;15.80;99.90;;;;;;4999721;28;20070;-83
2022/07/07 02:31:27;;;;;;;14.13;5.00;;;15.90;99.90;;;;;;4949503;28;200696;-84
2022/07/07 02:33:53;;;;;;;14.95;5.00;;;15.90;99.90;;;;;;4985962;28;20053;-83
2022/07/07 02:36:19;;;;;;;16.25;4.95;;;15.90;99.90;;;;;;4921589;28;217843;-83
2022/07/07 02:38:46;;;;;;;16.55;4.70;;;15.90;99.90;;;;;;4995959;28;20419;-81
2022/07/07 02:41:12;;;;;;;19.70;5.07;;;15.80;99.90;;;;;;4941446;28;247692;-81
2022/07/07 02:43:39;;;;;;;17.73;4.75;;;15.90;99.90;;;;;;4996239;28;20057;-81
2022/07/07 02:46:06;;;;;;;17.63;4.88;;;15.90;99.90;;;;;;4931670;28;233024;-81
2022/07/07 02:48:32;;;;;;;14.98;4.10;;;15.80;99.90;;;;;;5006382;28;20054;-81
2022/07/07 02:50:58;;;;;;;15.75;5.10;;;15.80;99.90;;;;;;4949403;28;217370;-80
2022/07/07 02:53:25;;;;;;;14.38;3.95;;;15.90;99.90;;;;;;4969437;28;20053;-81
2022/07/07 02:55:51;;;;;;;16.40;4.10;;;15.90;99.90;;;;;;4952438;28;192570;-80
2022/07/07 02:58:20;;;;;;;17.58;3.55;;;15.90;99.90;;;;;;5005390;28;20065;-80
2022/07/07 03:00:47;;;;;;;14.65;3.35;;;15.80;99.90;;;;;;4948707;28;217804;-81
2022/07/07 03:03:14;;;;;;;11.48;3.35;;;15.80;99.90;;;;;;4992849;28;20046;-82
2022/07/07 03:05:40;;;;;;;15.23;3.30;;;15.80;99.90;;;;;;4925708;28;234060;-81
2022/07/07 03:08:07;;;;;;;14.38;3.28;;;15.80;99.90;;;;;;4983718;28;20053;-80
2022/07/07 03:10:33;;;;;;;12.85;2.67;;;15.80;99.90;;;;;;4949134;28;204930;-80
2022/07/07 03:12:59;;;;;;;19.63;3.22;;;15.80;99.90;;;;;;4997467;28;20416;-81
2022/07/07 03:15:26;;;;;;;16.52;2.90;;;15.80;99.90;;;;;;4948067;28;210337;-81
2022/07/07 03:17:52;;;;;;;13.43;2.80;;;15.80;99.90;;;;;;4986159;28;20049;-80
2022/07/07 03:20:19;;;;;;;17.65;2.88;;;15.80;99.90;;;;;;4940225;28;209404;-80
2022/07/07 03:22:46;;;;;;;14.63;2.90;;;15.80;99.90;;;;;;4967245;28;206938;-80
2022/07/07 03:25:12;;;;;;;11.27;2.53;;;15.80;99.90;;;;;;4989820;28;78071;-81
2022/07/07 03:27:39;;;;;;;15.57;3.13;;;15.80;99.90;;;;;;4938614;28;217900;-80
2022/07/07 03:30:07;;;;;;;20.05;2.95;;;15.80;99.90;;;;;;4993174;28;134970;-79
2022/07/07 03:32:34;;;;;;;17.40;2.88;;;15.80;99.90;;;;;;4933256;28;205098;-80
2022/07/07 03:35:00;;;;;;;17.05;3.08;;;15.80;99.90;;;;;;4987048;28;256309;-79
2022/07/07 03:37:27;;;;;;;16.55;3.20;;;15.80;99.90;;;;;;4961050;28;210409;-80
2022/07/07 03:39:53;;;;;;;14.07;3.25;;;15.80;99.90;;;;;;4985847;28;229466;-81
2022/07/07 03:42:20;;;;;;;19.58;3.22;;;15.70;99.90;;;;;;4941075;28;210341;-81
2022/07/07 03:44:46;;;;;;;14.40;3.05;;;15.80;99.90;;;;;;4998583;28;138962;-82
2022/07/07 03:47:13;;;;;;;14.23;2.85;;;15.70;99.90;;;;;;4955263;28;187128;-83
2022/07/07 03:49:39;;;;;;;17.00;3.13;;;15.70;99.90;;;;;;4989437;28;230755;-84
2022/07/07 03:52:06;;;;;;;14.68;2.90;;;15.70;99.90;;;;;;4947777;28;214159;-84
2022/07/07 03:54:32;;;;;;;13.95;2.72;;;15.70;99.90;;;;;;4991922;28;166709;-84
2022/07/07 03:56:59;;;;;;;14.18;2.60;;;15.60;99.90;;;;;;4956215;28;205622;-82
2022/07/07 03:59:25;;;;;;;15.52;2.55;;;15.60;99.90;;;;;;4989649;28;270551;-82
2022/07/07 04:01:51;;;;;;;15.75;2.85;;;15.60;99.90;;;;;;4943981;28;211699;-81
2022/07/07 04:04:17;;;;;;;10.53;2.47;;;15.60;99.90;;;;;;4980401;28;259592;-80
2022/07/07 04:06:44;;;;;;;14.68;2.33;;;15.50;99.90;;;;;;4937692;28;209406;-81
2022/07/07 04:09:10;;;;;;;17.60;2.88;;;15.50;99.90;;;;;;4996640;28;256444;-82
2022/07/07 04:11:36;;;;;;;11.63;1.63;;;15.50;99.90;;;;;;4954740;28;205777;-84
2022/07/07 04:14:03;;;;;;;10.75;1.40;;;15.40;99.90;;;;;;5007077;28;20057;-83
2022/07/07 04:16:29;;;;;;;14.75;2.05;;;15.30;99.90;;;;;;4943297;28;219675;-83
2022/07/07 04:18:56;;;;;;;11.07;1.70;;;15.20;99.90;;;;;;4996711;28;20487;-81
2022/07/07 04:21:22;;;;;;;11.18;1.50;;;15.10;99.90;;;;;;4923713;28;206019;-80
2022/07/07 04:23:48;;;;;;;15.70;1.88;;;15.10;99.90;;;;;;4996976;28;20140;-80
2022/07/07 04:26:15;;;;;;;12.93;1.70;;;15.00;99.90;;;;;;4943381;28;206400;-82
2022/07/07 04:28:41;;;;;;;13.32;1.80;;;15.00;99.90;;;;;;5001103;28;20496;-80
2022/07/07 04:31:08;;;;;;;11.02;1.80;;;15.00;99.90;;;;;;4951569;28;231300;-81
2022/07/07 04:33:34;;;;;;;12.90;1.70;;;15.00;99.90;;;;;;5033207;28;20046;-80
2022/07/07 04:36:00;;;;;;;11.98;1.73;;;14.90;99.90;;;;;;4950047;28;203905;-80
2022/07/07 04:38:26;;;;;;;14.60;1.90;;;15.00;99.90;;;;;;4984241;28;20061;-80
2022/07/07 04:40:52;;;;;;;12.05;1.77;;;15.00;99.90;;;;;;4940510;28;213899;-80
2022/07/07 04:43:20;;;;;;;15.60;2.10;;;15.00;99.90;;;;;;4995889;28;20066;-80
2022/07/07 04:45:46;;;;;;;16.23;2.38;;;15.00;99.90;;;;;;4951239;28;212506;-83
2022/07/07 04:48:12;;;;;;;16.33;1.83;;;15.00;99.90;;;;;;4998933;28;20061;-80
2022/07/07 04:50:38;;;;;;;13.07;2.27;;;15.00;99.90;;;;;;4963651;28;236048;-84
2022/07/07 04:53:05;;;;;;;18.05;2.22;;;15.00;99.90;;;;;;4994516;28;20045;-83
2022/07/07 04:55:31;;;;;;;15.40;2.10;;;15.10;99.90;;;;;;4949338;28;202757;-82
2022/07/07 04:57:57;;;;;;;12.45;1.98;;;15.10;99.90;;;;;;5003050;28;20521;-79
2022/07/07 05:00:23;;;;;;;10.85;2.22;;;15.10;99.90;;;;;;4954748;28;234603;-79
2022/07/07 05:02:50;;;;;;;19.05;2.20;;;15.20;99.90;;;;;;4992932;28;20038;-79
2022/07/07 05:05:17;;;;;;;10.88;1.70;;;15.10;99.90;;;;;;4968722;28;254368;-80
2022/07/07 05:07:43;;;;;;;11.35;1.73;;;15.10;99.90;;;;;;4952106;28;222475;-84
2022/07/07 05:10:10;;;;;;;11.18;1.70;;;15.10;99.90;;;;;;4997745;28;80984;-80
2022/07/07 05:12:36;;;;;;;16.88;1.70;;;15.10;99.90;;;;;;4951484;28;200114;-82
2022/07/07 05:15:02;;;;;;;13.73;1.70;;;15.10;99.90;;;;;;4992287;28;105716;-82
2022/07/07 05:17:29;;;;;;;11.82;1.73;;;15.20;99.90;;;;;;4955918;28;207150;-82
2022/07/07 05:19:55;;;;;;;10.70;1.75;;;15.30;99.90;;;;;;4974369;28;20046;-79
2022/07/07 05:22:21;;;;;;;11.77;1.95;;;15.30;99.90;;;;;;4931656;28;205526;-80
2022/07/07 05:24:47;;;;;;;14.25;2.40;;;15.40;99.90;;;;;;4977917;28;35593;-80
2022/07/07 05:27:13;;;;;;;11.65;2.20;;;15.50;99.90;;;;;;4935656;28;207272;-80
2022/07/07 05:29:39;;;;;;;14.82;2.15;;;15.50;99.90;;;;;;4990446;28;183021;-80
2022/07/07 05:32:06;;;;;;;13.95;2.10;;;15.50;99.90;;;;;;4952996;28;207427;-79
2022/07/07 05:34:32;;;;;;;12.60;2.00;;;15.50;99.90;;;;;;4991601;28;230643;-79
2022/07/07 05:36:58;;;;;;;16.10;2.00;;;15.50;99.90;;;;;;4950944;28;207189;-78
2022/07/07 05:39:24;;;;;;;18.27;2.80;;;15.50;99.90;;;;;;4987481;28;248000;-79
2022/07/07 05:41:50;;;;;;;11.35;2.00;;;15.50;99.90;;;;;;4960807;28;215642;-78
2022/07/07 05:44:16;;;;;;;17.77;2.23;;;15.50;99.90;;;;;;4968665;28;269478;-78
2022/07/07 05:46:43;;;;;;;13.43;1.88;;;15.50;99.90;;;;;;4939892;28;213870;-79
2022/07/07 05:49:10;;;;;;;15.20;2.47;;;15.50;99.90;;;;;;4965951;28;254049;-78
2022/07/07 05:51:36;;;;;;;14.52;2.33;;;15.50;99.90;;;;;;4969803;28;208565;-77
2022/07/07 05:54:02;;;;;;;17.45;2.00;;;15.60;99.90;;;;;;5003979;28;20061;-80
2022/07/07 05:56:28;;;;;;;14.32;2.22;;;15.60;99.90;;;;;;4942047;28;207676;-77
2022/07/07 05:58:54;;;;;;;17.27;2.50;;;15.60;99.90;;;;;;4995919;28;20045;-78
2022/07/07 06:01:20;;;;;;;13.27;2.10;;;15.60;99.90;;;;;;4917922;28;206716;-78
2022/07/07 06:03:47;;;;;;;15.73;2.38;;;15.60;99.90;;;;;;4969917;28;20496;-81
2022/07/07 06:06:13;;;;;;;18.90;2.25;;;15.60;99.90;;;;;;4910333;28;220956;-78
2022/07/07 06:08:39;;;;;;;13.93;2.03;;;15.60;99.90;;;;;;4990743;28;20058;-77
2022/07/07 06:11:05;;;;;;;15.98;2.55;;;15.70;99.90;;;;;;4936471;28;244032;-78
2022/07/07 06:13:31;;;;;;;14.15;2.50;;;15.70;99.90;;;;;;4995390;28;20411;-78
2022/07/07 06:15:57;;;;;;;13.45;2.38;;;15.80;99.90;;;;;;4953259;28;170467;-78
2022/07/07 06:18:23;;;;;;;14.30;2.25;;;15.90;99.90;;;;;;4967251;28;20054;-79
2022/07/07 06:20:49;;;;;;;11.95;2.10;;;15.90;99.90;;;;;;4940225;28;227961;-78
2022/07/07 06:23:16;;;;;;;14.68;2.08;;;16.00;99.90;;;;;;4977247;28;20542;-78
2022/07/07 06:25:43;;;;;;;14.77;2.10;;;16.00;99.90;;;;;;4928542;28;223288;-79
2022/07/07 06:28:09;;;;;;;15.30;1.88;;;16.10;99.90;;;;;;4994577;28;20055;-78
2022/07/07 06:30:35;;;;;;;11.60;1.70;;;16.10;99.90;;;;;;4946124;28;206547;-78
2022/07/07 06:33:01;;;;;;;11.43;1.90;;;16.00;99.90;;;;;;4973831;28;20061;-78
2022/07/07 06:35:27;;;;;;;11.75;1.58;;;16.00;99.90;;;;;;4940664;28;210847;-79
2022/07/07 06:37:54;;;;;;;8.82;1.50;;;16.00;99.90;;;;;;4985228;28;20054;-81
2022/07/07 06:40:21;;;;;;;14.30;1.70;;;15.80;99.90;;;;;;4957136;28;216135;-82
2022/07/07 06:42:47;;;;;;;10.75;1.60;;;15.60;99.90;;;;;;4997620;28;20045;-82
2022/07/07 06:45:13;;;;;;;10.68;1.75;;;15.50;99.90;;;;;;4992803;28;176255;-84
2022/07/07 06:47:40;;;;;;;10.30;1.50;;;15.40;99.90;;;;;;4941086;28;271230;-81
2022/07/07 06:50:06;;;;;;;11.75;1.35;;;15.40;99.90;;;;;;5001557;28;163521;-84
2022/07/07 06:52:32;;;;;;;7.35;1.10;;;15.30;99.90;;;;;;4949695;28;204682;-82
2022/07/07 06:54:58;;;;;;;10.13;1.38;;;15.40;99.90;;;;;;4975639;28;211289;-84
2022/07/07 06:57:24;;;;;;;9.27;1.48;;;15.80;99.90;;;;;;4947025;28;203868;-82
2022/07/07 06:59:51;;;;;;;10.32;1.40;;;15.90;99.90;;;;;;4992692;28;250007;-85
2022/07/07 07:02:18;;;;;;;7.30;1.33;;;15.80;99.90;;;;;;4924184;28;344933;-83
2022/07/07 07:04:44;;;;;;;12.10;1.40;;;15.90;99.90;;;;;;4977953;28;167878;-80
2022/07/07 07:07:10;;;;;;;7.72;1.38;;;15.90;99.90;;;;;;4959394;28;155634;-80
2022/07/07 07:09:36;;;;;;;7.18;1.10;;;15.80;99.90;;;;;;4971987;28;113926;-80
2022/07/07 07:12:03;;;;;;;10.48;1.35;;;15.90;99.90;;;;;;4954648;28;204225;-80
2022/07/07 07:14:29;;;;;;;11.60;1.48;;;15.90;99.90;;;;;;4992027;28;248504;-82
2022/07/07 07:16:55;;;;;;;9.32;1.50;;;15.90;99.90;;;;;;4972131;28;212064;-84
2022/07/07 07:19:21;;;;;;;8.40;1.30;;;15.90;99.90;;;;;;5011971;28;246280;-84
2022/07/07 07:21:47;;;;;;;7.80;1.27;;;15.90;99.90;;;;;;4991217;28;206995;-84
2022/07/07 07:24:14;;;;;;;9.23;1.25;;;15.90;99.90;;;;;;4992927;28;271009;-80
2022/07/07 07:26:40;;;;;;;7.60;1.13;;;16.30;99.90;;;;;;4960828;28;147225;-79
2022/07/07 07:29:06;;;;;;;9.23;1.40;;;16.40;99.90;;;;;;5003501;28;20042;-79
2022/07/07 07:31:32;;;;;;;7.00;1.00;;;16.50;99.90;;;;;;4936460;28;212872;-80
2022/07/07 07:33:58;;;;;;;9.52;1.20;;;16.60;99.90;;;;;;4987936;28;20049;-80
2022/07/07 07:36:25;;;;;;;9.68;1.58;;;16.60;99.90;;;;;;4940471;28;208043;-80
2022/07/07 07:38:51;;;;;;;9.45;1.20;;;16.70;99.90;;;;;;5001047;28;20053;-80
2022/07/07 07:41:19;;;;;;;8.68;1.33;;;16.70;99.90;;;;;;4931243;28;207250;-80
2022/07/07 07:43:45;;;;;;;7.75;1.10;;;16.80;99.90;;;;;;5000500;28;20459;-80
2022/07/07 07:46:12;;;;;;;9.93;1.20;;;16.90;99.90;;;;;;4948406;28;206683;-82
2022/07/07 07:48:38;;;;;;;9.68;1.30;;;17.00;99.90;;;;;;5005559;28;20041;-83
2022/07/07 07:51:04;;;;;;;7.30;1.00;;;16.80;99.90;;;;;;4940429;28;205498;-82
2022/07/07 07:53:30;;;;;;;7.72;1.15;;;16.60;99.90;;;;;;5001734;28;20072;-81
2022/07/07 07:55:56;;;;;;;9.73;1.58;;;16.40;99.90;;;;;;4935162;28;201229;-81
2022/07/07 07:58:22;;;;;;;9.25;1.38;;;16.50;99.90;;;;;;4988854;28;20065;-85
2022/07/07 08:00:49;;;;;;;7.93;1.38;;;16.40;99.90;;;;;;4943176;28;210930;-83
2022/07/07 08:03:15;;;;;;;8.98;1.30;;;16.60;99.90;;;;;;5002125;28;20430;-80
2022/07/07 08:05:41;;;;;;;7.57;1.40;;;16.70;99.90;;;;;;4939926;28;205789;-80
2022/07/07 08:08:07;;;;;;;10.07;1.30;;;16.80;99.90;;;;;;4985140;28;20430;-82
2022/07/07 08:10:33;;;;;;;8.43;1.38;;;16.80;99.90;;;;;;4950997;28;206398;-80
2022/07/07 08:13:00;;;;;;;10.05;1.38;;;16.80;99.90;;;;;;5000259;28;20046;-80
2022/07/07 08:15:26;;;;;;;10.97;1.23;;;16.90;99.90;;;;;;4957112;28;203234;-80
2022/07/07 08:17:53;;;;;;;8.50;1.30;;;17.00;99.90;;;;;;4988404;28;20054;-81
2022/07/07 08:20:19;;;;;;;8.90;1.20;;;17.30;99.90;;;;;;4962738;28;226778;-79
2022/07/07 08:22:45;;;;;;;5.53;1.00;;;17.30;99.90;;;;;;4981966;28;209975;-81
2022/07/07 08:25:12;;;;;;;7.97;1.20;;;17.20;99.90;;;;;;5002105;28;26026;-79
2022/07/07 08:27:38;;;;;;;6.47;0.80;;;17.20;99.90;;;;;;4953537;28;206964;-80
2022/07/07 08:30:05;;;;;;;8.35;0.93;;;17.10;99.90;;;;;;4995510;28;62848;-79
2022/07/07 08:32:31;;;;;;;9.75;1.00;;;17.20;99.90;;;;;;4929018;28;211576;-80
2022/07/07 08:34:57;;;;;;;6.90;1.10;;;17.40;99.90;;;;;;4994923;28;77130;-81
2022/07/07 08:37:24;;;;;;;8.90;1.20;;;17.70;99.90;;;;;;4967438;28;205959;-79
2022/07/07 08:39:50;;;;;;;9.55;1.30;;;17.90;99.90;;;;;;4974983;28;223609;-79
2022/07/07 08:42:17;;;;;;;10.32;1.63;;;18.00;99.90;;;;;;4941355;28;218251;-79
2022/07/07 08:44:43;;;;;;;9.70;1.67;;;18.10;99.90;;;;;;4977962;28;162104;-80
2022/07/07 08:47:09;;;;;;;9.57;1.42;;;18.10;99.90;;;;;;4944665;28;220069;-80
2022/07/07 08:49:35;;;;;;;10.30;1.40;;;18.00;99.90;;;;;;4995278;28;20049;-82
2022/07/07 08:52:02;;;;;;;13.57;1.73;;;17.80;99.90;;;;;;4956423;28;206953;-80
2022/07/07 08:54:31;;;;;;;8.98;1.55;;;17.70;99.90;;;;;;4993922;28;258003;-80
2022/07/07 08:56:58;;;;;;;12.25;1.63;;;17.70;99.90;;;;;;4933334;28;208094;-80
2022/07/07 08:59:25;;;;;;;13.98;2.25;;;17.70;99.90;;;;;;4978903;28;255701;-78
2022/07/07 09:01:56;;;;;;;11.63;1.63;;;18.00;99.90;;;;;;4930918;28;207554;-78
2022/07/07 09:04:22;;;;;;;;;;;18.20;99.90;;;;;;4953558;28;251971;-78
2022/07/07 09:06:52;;;;;;;10.50;1.70;;;18.00;99.90;;;;;;4960672;28;203358;-81
2022/07/07 09:09:49;;;;;;;12.30;1.75;;;18.00;99.90;;;;;;4987765;28;256402;-80
2022/07/07 09:12:16;;;;;;;9.85;1.50;;;17.80;99.90;;;;;;4952521;28;228106;-79
2022/07/07 09:14:48;;;;;;;9.38;1.80;;;17.80;99.90;;;;;;4994028;28;33078;-81
2022/07/07 09:17:24;;;;;;;12.50;2.28;;;18.20;99.90;;;;;;4940762;28;220672;-79
2022/07/07 09:20:12;;;;;;;10.23;1.65;;;18.50;99.90;;;;;;5003785;28;160511;-79
2022/07/07 09:22:51;;;;;;;11.35;1.85;;;18.40;99.90;;;;;;4932708;28;208989;-81
2022/07/07 09:25:24;;;;;;;7.72;1.38;;;18.10;99.90;;;;;;4971474;28;231461;-81
2022/07/07 09:28:04;;;;;;;9.20;1.73;;;17.70;99.90;;;;;;4967869;28;206439;-82
2022/07/07 09:30:37;;;;;;;9.95;1.70;;;17.40;99.90;;;;;;4950274;28;223821;-80
2022/07/07 09:33:07;;;;;;;9.20;1.60;;;17.30;99.90;;;;;;4971276;28;20046;-80
2022/07/07 09:38:23;;;;;;;8.98;2.00;;;17.70;99.90;;;;;;4996018;28;20049;-79
2022/07/07 09:41:03;;;;;;;9.30;1.70;;;18.50;99.90;;;;;;4954762;28;204993;-79
2022/07/07 09:43:33;;;;;;;10.95;1.90;;;18.90;99.90;;;;;;4984715;28;20076;-80
2022/07/07 09:46:08;;;;;;;8.55;1.48;;;18.80;99.90;;;;;;4933690;28;207991;-79
2022/07/07 09:48:35;;;;;;;8.85;1.60;;;18.50;99.90;;;;;;4980501;28;20065;-79
2022/07/07 09:51:27;;;;;;;9.40;1.50;;;18.40;99.90;;;;;;4938226;28;212583;-79
2022/07/07 09:54:07;;;;;;;13.00;1.83;;;18.20;99.90;;;;;;5003152;28;20057;-79
2022/07/07 09:56:38;;;;;;;6.70;1.20;;;18.40;99.90;;;;;;4931967;28;209234;-80
2022/07/07 09:59:08;;;;;;;7.22;1.35;;;18.60;99.90;;;;;;5009433;28;20072;-79
2022/07/07 10:01:37;;;;;;;11.85;1.90;;;18.40;99.90;;;;;;4925930;28;206435;-78
2022/07/07 10:04:06;;;;;;;10.73;1.58;;;18.30;99.90;;;;;;4996675;28;20061;-78
2022/07/07 10:06:34;;;;;;;10.00;1.40;;;18.10;99.90;;;;;;4921798;28;257365;-78
2022/07/07 10:09:02;;;;;;;12.45;1.40;;;18.20;99.90;;;;;;4998229;28;20053;-79
2022/07/07 10:11:40;;;;;;;10.93;1.55;;;18.30;99.90;;;;;;4947264;28;205024;-77
2022/07/07 10:14:14;;;;;;;13.07;1.83;;;18.50;99.90;;;;;;5018629;28;20045;-78
2022/07/07 10:16:42;;;;;;;11.70;1.73;;;18.30;99.90;;;;;;4951606;28;212142;-80
2022/07/07 10:19:11;;;;;;;9.88;1.75;;;17.90;99.90;;;;;;4987761;28;248493;-81
2022/07/07 10:21:40;;;;;;;10.20;1.63;;;17.60;99.90;;;;;;4979976;28;108704;-80
2022/07/07 10:24:07;;;;;;;9.45;1.50;;;17.40;99.90;;;;;;5008435;28;20053;-80
2022/07/07 10:27:03;;;;;;;12.60;1.90;;;17.20;99.90;;;;;;4939059;28;208881;-81
2022/07/07 10:29:39;;;;;;;12.23;1.80;;;17.20;99.90;;;;;;4976851;28;22706;-80
2022/07/07 10:32:11;;;;;;;11.55;1.83;;;17.00;99.90;;;;;;4943343;28;205412;-81
2022/07/07 10:34:41;;;;;;;8.20;1.52;;;17.00;99.90;;;;;;4969435;28;244674;-80
2022/07/07 10:37:09;;;;;;;13.30;1.80;;;17.00;99.90;;;;;;4944491;28;218801;-79
2022/07/07 10:39:47;;;;;;;12.48;1.90;;;17.10;99.90;;;;;;4968913;28;192043;-79
2022/07/07 10:42:16;;;;;;;15.70;2.10;;;17.20;99.90;;;;;;4947774;28;205511;-80
2022/07/07 10:44:53;;;;;;;13.43;2.00;;;17.40;99.90;;;;;;4977803;28;233699;-78
2022/07/07 10:47:19;;;;;;;14.55;2.20;;;17.40;99.90;;;;;;4917073;28;189381;-78
2022/07/07 10:49:54;;;;;;;12.93;2.20;;;17.20;99.90;;;;;;4976556;28;132119;-80
2022/07/07 10:52:40;;;;;;;15.32;2.30;;;17.10;99.90;;;;;;4918212;28;205450;-79
2022/07/07 10:55:07;;;;;;;18.63;2.28;;;17.10;99.90;;;;;;4970820;28;171757;-79
2022/07/07 10:57:41;;;;;;;12.27;2.33;;;17.00;99.90;;;;;;4931860;28;210147;-81
2022/07/07 11:00:26;;;;;;;20.27;2.40;;;17.10;99.90;;;;;;4955021;28;249224;-78
2022/07/07 11:03:08;;;;;;;15.25;2.33;;;17.30;99.90;;;;;;4922475;28;204625;-79
2022/07/07 11:05:35;;;;;;;15.40;2.28;;;17.50;99.90;;;;;;4910882;28;208801;-78
2022/07/07 11:08:06;;;;;;;18.23;2.05;;;17.70;99.90;;;;;;4984284;28;20066;-78
2022/07/07 11:10:45;;;;;;;16.02;2.08;;;17.70;99.90;;;;;;4947307;28;207666;-80
2022/07/07 11:13:30;;;;;;;19.23;2.25;;;17.40;99.90;;;;;;4965650;28;20042;-79
2022/07/07 11:16:08;;;;;;;13.75;2.05;;;17.50;99.90;;;;;;4943780;28;215051;-79
2022/07/07 11:18:35;;;;;;;17.58;2.55;;;17.70;99.90;;;;;;5004027;28;20064;-78
2022/07/07 11:21:03;;;;;;;17.88;2.60;;;17.80;99.90;;;;;;4949864;28;205858;-78
2022/07/07 11:23:50;;;;;;;16.65;2.47;;;17.60;99.90;;;;;;4994698;28;20126;-78
2022/07/07 11:26:19;;;;;;;23.13;2.92;;;17.50;99.90;;;;;;4947542;28;256150;-77
2022/07/07 11:28:46;;;;;;;17.45;2.53;;;17.40;99.90;;;;;;4979099;28;20062;-78
2022/07/07 11:31:13;;;;;;;22.08;2.88;;;17.30;99.90;;;;;;4933866;28;205839;-78
2022/07/07 11:33:39;;;;;;;18.30;2.22;;;17.30;99.90;;;;;;4995463;28;20065;-77
2022/07/07 11:36:10;;;;;;;20.65;2.95;;;17.30;99.90;;;;;;4933038;28;202190;-77
2022/07/07 11:38:36;;;;;;;17.13;3.03;;;17.20;99.90;;;;;;4995741;28;20506;-78
2022/07/07 11:41:04;;;;;;;20.65;2.95;;;17.10;99.90;;;;;;4944497;28;204994;-78
2022/07/07 11:43:30;;;;;;;18.60;2.63;;;17.00;99.90;;;;;;4984156;28;20560;-78
2022/07/07 11:45:57;;;;;;;20.42;3.10;;;17.10;99.90;;;;;;4946435;28;210615;-78
2022/07/07 11:48:23;;;;;;;17.85;2.88;;;17.40;99.90;;;;;;4971821;28;20162;-78
2022/07/07 11:50:50;;;;;;;15.82;2.50;;;17.50;99.90;;;;;;4948333;28;206523;-77
2022/07/07 11:53:16;;;;;;;18.90;3.08;;;17.70;99.90;;;;;;5001307;28;20046;-78
2022/07/07 11:55:42;;;;;;;20.10;3.05;;;17.80;99.90;;;;;;4935314;28;207585;-78
2022/07/07 11:58:09;;;;;;;20.63;2.67;;;17.80;99.90;;;;;;4984941;28;20049;-78
2022/07/07 12:00:38;;;;;;;16.52;2.38;;;18.00;99.90;;;;;;4938496;28;210691;-78
2022/07/07 12:03:06;;;;;;;17.63;2.58;;;18.10;99.90;;;;;;5009188;28;20069;-78
2022/07/07 12:05:45;;;;;;;15.18;2.58;;;17.90;99.90;;;;;;4924052;28;207190;-78
2022/07/07 12:08:14;;;;;;;15.27;2.30;;;17.90;99.90;;;;;;4987274;28;20049;-78
2022/07/07 12:10:50;;;;;;;18.10;2.65;;;18.00;99.90;;;;;;4960491;28;205719;-78
2022/07/07 12:13:16;;;;;;;16.58;2.40;;;18.00;99.90;;;;;;4994706;28;20045;-77
2022/07/07 12:15:45;;;;;;;14.13;2.45;;;18.10;99.90;;;;;;4943732;28;216948;-78
2022/07/07 12:18:12;;;;;;;17.70;2.55;;;18.10;99.90;;;;;;4995772;28;20057;-78
2022/07/07 12:20:40;;;;;;;14.43;2.35;;;18.20;99.90;;;;;;4946763;28;236233;-77
2022/07/07 12:23:17;;;;;;;14.73;2.50;;;18.20;99.90;;;;;;4966320;28;20060;-78
2022/07/07 12:25:44;;;;;;;13.40;2.45;;;18.10;99.90;;;;;;4951440;28;217340;-78
2022/07/07 12:28:10;;;;;;;18.30;2.63;;;18.20;99.90;;;;;;4995064;28;20054;-78
2022/07/07 12:30:54;;;;;;;19.40;3.23;;;18.70;99.90;;;;;;4950685;28;206440;-78
2022/07/07 12:33:35;;;;;;;15.05;2.35;;;19.20;99.90;;;;;;4997544;28;20042;-78
2022/07/07 12:36:08;;;;;;;17.25;2.72;;;19.30;99.90;;;;;;4943064;28;214983;-77
2022/07/07 12:38:36;;;;;;;21.38;2.80;;;19.00;99.90;;;;;;4999404;28;20516;-78
2022/07/07 12:41:02;;;;;;;16.92;2.90;;;18.70;99.90;;;;;;4937070;28;209642;-78